sensor_id;sensor_type;location;lat;lon;timestamp;temperature;humidity
52295;DHT22;38243;53.212;6.574;2023-11-18T00:00:03;16.30;94.50
52295;DHT22;38243;53.212;6.574;2023-11-18T00:02:36;16.30;94.50
52295;DHT22;38243;53.212;6.574;2023-11-18T00:05:02;16.20;94.50
52295;DHT22;38243;53.212;6.574;2023-11-18T00:07:28;16.20;94.60
52295;DHT22;38243;53.212;6.574;2023-11-18T00:09:54;16.30;94.60
52295;DHT22;38243;53.212;6.574;2023-11-18T00:12:20;16.20;94.50
52295;DHT22;38243;53.212;6.574;2023-11-18T00:14:47;16.20;94.50
52295;DHT22;38243;53.212;6.574;2023-11-18T00:17:13;16.20;94.50
52295;DHT22;38243;53.212;6.574;2023-11-18T00:19:38;16.20;94.50
52295;DHT22;38243;53.212;6.574;2023-11-18T00:22:04;16.30;94.50
52295;DHT22;38243;53.212;6.574;2023-11-18T00:24:31;16.30;94.60
52295;DHT22;38243;53.212;6.574;2023-11-18T00:27:00;16.20;94.50
52295;DHT22;38243;53.212;6.574;2023-11-18T00:29:34;16.20;94.60
52295;DHT22;38243;53.212;6.574;2023-11-18T00:32:03;16.20;94.50
52295;DHT22;38243;53.212;6.574;2023-11-18T00:34:29;16.30;94.60
52295;DHT22;38243;53.212;6.574;2023-11-18T00:36:55;16.20;94.50
52295;DHT22;38243;53.212;6.574;2023-11-18T00:39:25;15.50;94.30
52295;DHT22;38243;53.212;6.574;2023-11-18T00:41:50;16.20;94.60
52295;DHT22;38243;53.212;6.574;2023-11-18T00:44:16;16.20;94.60
52295;DHT22;38243;53.212;6.574;2023-11-18T00:46:42;16.20;94.60
52295;DHT22;38243;53.212;6.574;2023-11-18T00:49:07;16.20;94.60
52295;DHT22;38243;53.212;6.574;2023-11-18T00:51:33;16.20;94.60
52295;DHT22;38243;53.212;6.574;2023-11-18T00:53:59;16.20;94.60
52295;DHT22;38243;53.212;6.574;2023-11-18T00:56:27;16.20;94.60
52295;DHT22;38243;53.212;6.574;2023-11-18T00:58:54;16.20;94.60
52295;DHT22;38243;53.212;6.574;2023-11-18T01:01:20;16.10;94.40
52295;DHT22;38243;53.212;6.574;2023-11-18T01:03:47;16.10;94.40
52295;DHT22;38243;53.212;6.574;2023-11-18T01:06:13;16.10;94.40
52295;DHT22;38243;53.212;6.574;2023-11-18T01:08:44;16.20;94.50
52295;DHT22;38243;53.212;6.574;2023-11-18T01:11:09;16.10;94.50
52295;DHT22;38243;53.212;6.574;2023-11-18T01:13:35;16.10;94.50
52295;DHT22;38243;53.212;6.574;2023-11-18T01:16:01;16.10;94.50
52295;DHT22;38243;53.212;6.574;2023-11-18T01:18:27;16.20;94.50
52295;DHT22;38243;53.212;6.574;2023-11-18T01:20:53;16.10;94.60
52295;DHT22;38243;53.212;6.574;2023-11-18T01:23:19;16.10;94.60
52295;DHT22;38243;53.212;6.574;2023-11-18T01:25:45;16.20;94.50
52295;DHT22;38243;53.212;6.574;2023-11-18T01:28:11;16.10;94.50
52295;DHT22;38243;53.212;6.574;2023-11-18T01:30:37;16.10;94.50
52295;DHT22;38243;53.212;6.574;2023-11-18T01:33:02;16.10;94.50
52295;DHT22;38243;53.212;6.574;2023-11-18T01:35:29;16.10;94.50
52295;DHT22;38243;53.212;6.574;2023-11-18T01:37:56;16.10;94.50
52295;DHT22;38243;53.212;6.574;2023-11-18T01:40:22;16.10;94.50
52295;DHT22;38243;53.212;6.574;2023-11-18T01:42:49;16.10;94.40
52295;DHT22;38243;53.212;6.574;2023-11-18T01:45:15;16.10;94.40
52295;DHT22;38243;53.212;6.574;2023-11-18T01:47:44;16.10;94.50
52295;DHT22;38243;53.212;6.574;2023-11-18T01:50:12;16.10;94.50
52295;DHT22;38243;53.212;6.574;2023-11-18T01:52:40;16.10;94.50
52295;DHT22;38243;53.212;6.574;2023-11-18T01:55:07;16.10;94.50
52295;DHT22;38243;53.212;6.574;2023-11-18T01:57:34;16.10;94.60
52295;DHT22;38243;53.212;6.574;2023-11-18T02:00:00;16.00;94.50
52295;DHT22;38243;53.212;6.574;2023-11-18T02:02:30;16.10;94.60
52295;DHT22;38243;53.212;6.574;2023-11-18T02:04:56;16.10;94.60
52295;DHT22;38243;53.212;6.574;2023-11-18T02:07:22;16.00;94.50
52295;DHT22;38243;53.212;6.574;2023-11-18T02:09:49;16.10;94.60
52295;DHT22;38243;53.212;6.574;2023-11-18T02:13:06;16.10;94.60
52295;DHT22;38243;53.212;6.574;2023-11-18T02:15:06;16.00;94.50
52295;DHT22;38243;53.212;6.574;2023-11-18T02:17:37;16.10;94.40
52295;DHT22;38243;53.212;6.574;2023-11-18T02:20:05;16.00;94.40
52295;DHT22;38243;53.212;6.574;2023-11-18T02:22:45;16.00;94.30
52295;DHT22;38243;53.212;6.574;2023-11-18T02:25:18;16.00;94.30
52295;DHT22;38243;53.212;6.574;2023-11-18T02:27:45;15.90;94.30
52295;DHT22;38243;53.212;6.574;2023-11-18T02:30:13;16.00;94.40
52295;DHT22;38243;53.212;6.574;2023-11-18T02:32:51;16.00;94.40
52295;DHT22;38243;53.212;6.574;2023-11-18T02:35:30;16.00;94.40
52295;DHT22;38243;53.212;6.574;2023-11-18T02:37:57;16.00;94.40
52295;DHT22;38243;53.212;6.574;2023-11-18T02:40:32;16.00;94.40
52295;DHT22;38243;53.212;6.574;2023-11-18T02:42:59;16.00;94.40
52295;DHT22;38243;53.212;6.574;2023-11-18T02:45:26;16.00;94.40
52295;DHT22;38243;53.212;6.574;2023-11-18T02:47:53;16.00;94.40
52295;DHT22;38243;53.212;6.574;2023-11-18T02:50:26;16.00;94.40
52295;DHT22;38243;53.212;6.574;2023-11-18T02:52:53;16.00;94.40
52295;DHT22;38243;53.212;6.574;2023-11-18T02:55:19;16.00;94.40
52295;DHT22;38243;53.212;6.574;2023-11-18T02:57:48;16.00;94.30
52295;DHT22;38243;53.212;6.574;2023-11-18T03:00:15;16.00;94.70
52295;DHT22;38243;53.212;6.574;2023-11-18T03:02:48;16.00;94.40
52295;DHT22;38243;53.212;6.574;2023-11-18T03:05:15;16.00;94.40
52295;DHT22;38243;53.212;6.574;2023-11-18T03:07:41;15.90;94.40
52295;DHT22;38243;53.212;6.574;2023-11-18T03:10:07;16.00;94.40
52295;DHT22;38243;53.212;6.574;2023-11-18T03:12:37;15.90;94.40
52295;DHT22;38243;53.212;6.574;2023-11-18T03:15:05;15.90;94.40
52295;DHT22;38243;53.212;6.574;2023-11-18T03:17:31;15.90;94.40
52295;DHT22;38243;53.212;6.574;2023-11-18T03:19:57;15.90;94.40
52295;DHT22;38243;53.212;6.574;2023-11-18T03:22:23;15.90;94.40
52295;DHT22;38243;53.212;6.574;2023-11-18T03:24:49;15.90;94.40
52295;DHT22;38243;53.212;6.574;2023-11-18T03:27:15;15.90;94.40
52295;DHT22;38243;53.212;6.574;2023-11-18T03:29:40;15.90;94.40
52295;DHT22;38243;53.212;6.574;2023-11-18T03:32:11;15.90;94.40
52295;DHT22;38243;53.212;6.574;2023-11-18T03:34:38;15.90;94.40
52295;DHT22;38243;53.212;6.574;2023-11-18T03:37:04;15.90;94.40
52295;DHT22;38243;53.212;6.574;2023-11-18T03:39:30;15.90;94.40
52295;DHT22;38243;53.212;6.574;2023-11-18T03:41:56;15.90;94.50
52295;DHT22;38243;53.212;6.574;2023-11-18T03:44:23;15.90;94.40
52295;DHT22;38243;53.212;6.574;2023-11-18T03:46:51;15.90;94.40
52295;DHT22;38243;53.212;6.574;2023-11-18T03:49:17;15.90;94.40
52295;DHT22;38243;53.212;6.574;2023-11-18T03:51:43;15.90;94.40
52295;DHT22;38243;53.212;6.574;2023-11-18T03:54:09;15.90;94.40
52295;DHT22;38243;53.212;6.574;2023-11-18T03:56:34;15.90;94.40
52295;DHT22;38243;53.212;6.574;2023-11-18T03:59:00;15.90;94.50
52295;DHT22;38243;53.212;6.574;2023-11-18T04:01:26;15.90;94.40
52295;DHT22;38243;53.212;6.574;2023-11-18T04:03:53;15.90;94.50
52295;DHT22;38243;53.212;6.574;2023-11-18T04:06:20;15.80;94.40
52295;DHT22;38243;53.212;6.574;2023-11-18T04:08:47;15.90;94.40
52295;DHT22;38243;53.212;6.574;2023-11-18T04:11:14;15.80;94.40
52295;DHT22;38243;53.212;6.574;2023-11-18T04:13:44;15.90;94.30
52295;DHT22;38243;53.212;6.574;2023-11-18T04:16:14;15.80;94.30
52295;DHT22;38243;53.212;6.574;2023-11-18T04:18:43;15.90;94.30
52295;DHT22;38243;53.212;6.574;2023-11-18T04:21:10;15.80;94.30
52295;DHT22;38243;53.212;6.574;2023-11-18T04:23:40;15.80;94.30
52295;DHT22;38243;53.212;6.574;2023-11-18T04:26:07;15.80;94.30
52295;DHT22;38243;53.212;6.574;2023-11-18T04:28:34;15.80;94.30
52295;DHT22;38243;53.212;6.574;2023-11-18T04:31:00;15.80;94.30
52295;DHT22;38243;53.212;6.574;2023-11-18T04:33:26;15.80;94.30
52295;DHT22;38243;53.212;6.574;2023-11-18T04:35:52;15.80;94.30
52295;DHT22;38243;53.212;6.574;2023-11-18T04:38:18;15.80;94.40
52295;DHT22;38243;53.212;6.574;2023-11-18T04:40:45;15.80;94.40
52295;DHT22;38243;53.212;6.574;2023-11-18T04:43:14;15.80;94.40
52295;DHT22;38243;53.212;6.574;2023-11-18T04:45:43;15.80;94.40
52295;DHT22;38243;53.212;6.574;2023-11-18T04:48:09;15.70;94.30
52295;DHT22;38243;53.212;6.574;2023-11-18T04:50:35;15.80;94.40
52295;DHT22;38243;53.212;6.574;2023-11-18T04:53:01;15.80;94.30
52295;DHT22;38243;53.212;6.574;2023-11-18T04:55:28;15.80;94.30
52295;DHT22;38243;53.212;6.574;2023-11-18T04:57:55;15.80;94.30
52295;DHT22;38243;53.212;6.574;2023-11-18T05:00:21;15.70;94.20
52295;DHT22;38243;53.212;6.574;2023-11-18T05:02:47;15.80;94.30
52295;DHT22;38243;53.212;6.574;2023-11-18T05:05:16;15.70;94.20
52295;DHT22;38243;53.212;6.574;2023-11-18T05:07:43;15.70;94.30
52295;DHT22;38243;53.212;6.574;2023-11-18T05:10:09;15.70;94.30
52295;DHT22;38243;53.212;6.574;2023-11-18T05:12:38;15.70;94.30
52295;DHT22;38243;53.212;6.574;2023-11-18T05:15:06;15.70;94.20
52295;DHT22;38243;53.212;6.574;2023-11-18T05:17:36;15.70;94.20
52295;DHT22;38243;53.212;6.574;2023-11-18T05:20:06;15.80;94.20
52295;DHT22;38243;53.212;6.574;2023-11-18T05:22:36;15.70;94.10
52295;DHT22;38243;53.212;6.574;2023-11-18T05:25:03;15.70;94.20
52295;DHT22;38243;53.212;6.574;2023-11-18T05:27:33;15.70;94.20
52295;DHT22;38243;53.212;6.574;2023-11-18T05:30:01;15.70;94.20
52295;DHT22;38243;53.212;6.574;2023-11-18T05:32:28;15.70;94.20
52295;DHT22;38243;53.212;6.574;2023-11-18T05:34:54;15.70;94.20
52295;DHT22;38243;53.212;6.574;2023-11-18T05:37:26;15.70;94.20
52295;DHT22;38243;53.212;6.574;2023-11-18T05:39:54;15.70;94.20
52295;DHT22;38243;53.212;6.574;2023-11-18T05:42:35;15.70;94.20
52295;DHT22;38243;53.212;6.574;2023-11-18T05:45:07;15.70;94.20
52295;DHT22;38243;53.212;6.574;2023-11-18T05:47:34;15.70;94.20
52295;DHT22;38243;53.212;6.574;2023-11-18T05:50:00;15.70;94.20
52295;DHT22;38243;53.212;6.574;2023-11-18T05:52:26;15.70;94.20
52295;DHT22;38243;53.212;6.574;2023-11-18T05:54:52;15.70;94.20
52295;DHT22;38243;53.212;6.574;2023-11-18T05:57:19;15.70;94.20
52295;DHT22;38243;53.212;6.574;2023-11-18T05:59:45;15.70;94.20
52295;DHT22;38243;53.212;6.574;2023-11-18T06:02:13;15.60;94.20
52295;DHT22;38243;53.212;6.574;2023-11-18T06:04:46;15.60;94.20
52295;DHT22;38243;53.212;6.574;2023-11-18T06:07:12;15.60;94.30
52295;DHT22;38243;53.212;6.574;2023-11-18T06:09:40;15.70;94.40
52295;DHT22;38243;53.212;6.574;2023-11-18T06:12:08;15.70;94.40
52295;DHT22;38243;53.212;6.574;2023-11-18T06:14:36;15.70;94.40
52295;DHT22;38243;53.212;6.574;2023-11-18T06:17:03;15.70;94.40
52295;DHT22;38243;53.212;6.574;2023-11-18T06:19:31;15.70;94.30
52295;DHT22;38243;53.212;6.574;2023-11-18T06:21:57;15.70;94.30
52295;DHT22;38243;53.212;6.574;2023-11-18T06:24:22;15.80;94.30
52295;DHT22;38243;53.212;6.574;2023-11-18T06:26:48;15.90;94.30
52295;DHT22;38243;53.212;6.574;2023-11-18T06:29:15;15.80;94.30
52295;DHT22;38243;53.212;6.574;2023-11-18T06:31:41;15.80;94.20
52295;DHT22;38243;53.212;6.574;2023-11-18T06:34:08;15.80;94.20
52295;DHT22;38243;53.212;6.574;2023-11-18T06:36:34;15.80;94.20
52295;DHT22;38243;53.212;6.574;2023-11-18T06:39:00;15.80;94.20
52295;DHT22;38243;53.212;6.574;2023-11-18T06:41:26;15.80;94.20
52295;DHT22;38243;53.212;6.574;2023-11-18T06:43:59;15.80;94.10
52295;DHT22;38243;53.212;6.574;2023-11-18T06:46:30;15.80;94.10
52295;DHT22;38243;53.212;6.574;2023-11-18T06:49:06;15.80;94.10
52295;DHT22;38243;53.212;6.574;2023-11-18T06:51:41;15.80;94.10
52295;DHT22;38243;53.212;6.574;2023-11-18T06:54:07;15.80;94.00
52295;DHT22;38243;53.212;6.574;2023-11-18T06:56:37;15.80;94.00
52295;DHT22;38243;53.212;6.574;2023-11-18T06:59:08;15.80;93.90
52295;DHT22;38243;53.212;6.574;2023-11-18T07:01:34;15.80;94.00
52295;DHT22;38243;53.212;6.574;2023-11-18T07:04:01;15.80;93.90
52295;DHT22;38243;53.212;6.574;2023-11-18T07:06:26;15.80;93.90
52295;DHT22;38243;53.212;6.574;2023-11-18T07:08:53;15.80;93.90
52295;DHT22;38243;53.212;6.574;2023-11-18T07:11:20;15.60;93.80
52295;DHT22;38243;53.212;6.574;2023-11-18T07:13:47;15.80;93.90
52295;DHT22;38243;53.212;6.574;2023-11-18T07:16:13;15.80;93.80
52295;DHT22;38243;53.212;6.574;2023-11-18T07:18:40;15.80;93.90
52295;DHT22;38243;53.212;6.574;2023-11-18T07:21:07;15.80;93.80
52295;DHT22;38243;53.212;6.574;2023-11-18T07:23:35;15.80;93.80
52295;DHT22;38243;53.212;6.574;2023-11-18T07:26:01;15.80;93.80
52295;DHT22;38243;53.212;6.574;2023-11-18T07:28:29;15.80;93.80
52295;DHT22;38243;53.212;6.574;2023-11-18T07:30:56;15.80;93.80
52295;DHT22;38243;53.212;6.574;2023-11-18T07:33:23;15.80;93.70
52295;DHT22;38243;53.212;6.574;2023-11-18T07:35:49;15.80;93.80
52295;DHT22;38243;53.212;6.574;2023-11-18T07:38:15;15.80;93.70
52295;DHT22;38243;53.212;6.574;2023-11-18T07:40:42;15.80;93.80
52295;DHT22;38243;53.212;6.574;2023-11-18T07:43:13;15.80;93.80
52295;DHT22;38243;53.212;6.574;2023-11-18T07:45:40;15.80;93.70
52295;DHT22;38243;53.212;6.574;2023-11-18T07:48:06;15.80;93.70
52295;DHT22;38243;53.212;6.574;2023-11-18T07:50:36;15.80;93.70
52295;DHT22;38243;53.212;6.574;2023-11-18T07:53:02;15.80;93.70
52295;DHT22;38243;53.212;6.574;2023-11-18T07:55:29;15.80;93.70
52295;DHT22;38243;53.212;6.574;2023-11-18T07:57:55;15.80;93.70
52295;DHT22;38243;53.212;6.574;2023-11-18T08:00:21;15.80;93.70
52295;DHT22;38243;53.212;6.574;2023-11-18T08:02:49;15.80;93.60
52295;DHT22;38243;53.212;6.574;2023-11-18T08:05:15;15.80;93.70
52295;DHT22;38243;53.212;6.574;2023-11-18T08:07:41;15.80;93.70
52295;DHT22;38243;53.212;6.574;2023-11-18T08:10:09;15.80;93.70
52295;DHT22;38243;53.212;6.574;2023-11-18T08:12:39;15.80;93.70
52295;DHT22;38243;53.212;6.574;2023-11-18T08:15:06;15.80;93.70
52295;DHT22;38243;53.212;6.574;2023-11-18T08:17:32;15.80;93.70
52295;DHT22;38243;53.212;6.574;2023-11-18T08:19:59;15.80;93.60
52295;DHT22;38243;53.212;6.574;2023-11-18T08:22:25;15.70;93.60
52295;DHT22;38243;53.212;6.574;2023-11-18T08:24:51;15.80;93.70
52295;DHT22;38243;53.212;6.574;2023-11-18T08:27:17;15.80;93.60
52295;DHT22;38243;53.212;6.574;2023-11-18T08:29:43;15.80;93.60
52295;DHT22;38243;53.212;6.574;2023-11-18T08:32:09;15.80;93.60
52295;DHT22;38243;53.212;6.574;2023-11-18T08:34:35;15.70;93.60
52295;DHT22;38243;53.212;6.574;2023-11-18T08:37:06;15.80;93.60
52295;DHT22;38243;53.212;6.574;2023-11-18T08:39:32;15.70;93.60
52295;DHT22;38243;53.212;6.574;2023-11-18T08:41:58;15.80;93.60
52295;DHT22;38243;53.212;6.574;2023-11-18T08:44:24;15.80;93.60
52295;DHT22;38243;53.212;6.574;2023-11-18T08:46:53;15.80;93.60
52295;DHT22;38243;53.212;6.574;2023-11-18T08:49:19;15.80;93.60
52295;DHT22;38243;53.212;6.574;2023-11-18T08:51:51;15.80;93.60
52295;DHT22;38243;53.212;6.574;2023-11-18T08:54:23;15.70;93.50
52295;DHT22;38243;53.212;6.574;2023-11-18T08:56:54;15.70;93.60
52295;DHT22;38243;53.212;6.574;2023-11-18T08:59:21;15.80;93.60
52295;DHT22;38243;53.212;6.574;2023-11-18T09:01:53;15.80;93.60
52295;DHT22;38243;53.212;6.574;2023-11-18T09:04:28;15.70;93.60
52295;DHT22;38243;53.212;6.574;2023-11-18T09:06:54;15.70;93.60
52295;DHT22;38243;53.212;6.574;2023-11-18T09:09:23;15.70;93.50
52295;DHT22;38243;53.212;6.574;2023-11-18T09:11:56;15.70;93.50
52295;DHT22;38243;53.212;6.574;2023-11-18T09:14:26;14.30;93.10
52295;DHT22;38243;53.212;6.574;2023-11-18T09:16:55;15.70;93.50
52295;DHT22;38243;53.212;6.574;2023-11-18T09:19:22;15.70;93.50
52295;DHT22;38243;53.212;6.574;2023-11-18T09:21:47;15.70;93.50
52295;DHT22;38243;53.212;6.574;2023-11-18T09:24:15;15.70;93.50
52295;DHT22;38243;53.212;6.574;2023-11-18T09:26:45;15.70;93.50
52295;DHT22;38243;53.212;6.574;2023-11-18T09:29:13;15.70;93.40
52295;DHT22;38243;53.212;6.574;2023-11-18T09:31:47;15.70;93.50
52295;DHT22;38243;53.212;6.574;2023-11-18T09:34:16;15.70;93.50
52295;DHT22;38243;53.212;6.574;2023-11-18T09:36:43;15.70;93.50
52295;DHT22;38243;53.212;6.574;2023-11-18T09:39:10;15.70;93.40
52295;DHT22;38243;53.212;6.574;2023-11-18T09:41:55;15.70;93.40
52295;DHT22;38243;53.212;6.574;2023-11-18T09:44:23;15.60;93.50
52295;DHT22;38243;53.212;6.574;2023-11-18T09:46:55;15.70;93.40
52295;DHT22;38243;53.212;6.574;2023-11-18T09:49:32;15.70;93.40
52295;DHT22;38243;53.212;6.574;2023-11-18T09:52:06;15.70;93.40
52295;DHT22;38243;53.212;6.574;2023-11-18T09:54:58;15.70;93.40
52295;DHT22;38243;53.212;6.574;2023-11-18T09:57:43;15.70;93.40
52295;DHT22;38243;53.212;6.574;2023-11-18T10:00:12;15.70;93.40
52295;DHT22;38243;53.212;6.574;2023-11-18T10:02:50;15.70;93.40
52295;DHT22;38243;53.212;6.574;2023-11-18T10:05:16;15.70;93.50
52295;DHT22;38243;53.212;6.574;2023-11-18T10:07:47;15.70;93.70
52295;DHT22;38243;53.212;6.574;2023-11-18T10:10:13;15.70;93.90
52295;DHT22;38243;53.212;6.574;2023-11-18T10:12:43;15.70;94.10
52295;DHT22;38243;53.212;6.574;2023-11-18T10:15:19;15.70;94.10
52295;DHT22;38243;53.212;6.574;2023-11-18T10:17:49;15.70;94.10
52295;DHT22;38243;53.212;6.574;2023-11-18T10:23:08;15.70;94.00
52295;DHT22;38243;53.212;6.574;2023-11-18T10:25:45;15.70;94.00
52295;DHT22;38243;53.212;6.574;2023-11-18T10:28:43;15.70;94.00
52295;DHT22;38243;53.212;6.574;2023-11-18T10:31:09;15.70;93.90
52295;DHT22;38243;53.212;6.574;2023-11-18T10:33:40;15.60;93.90
52295;DHT22;38243;53.212;6.574;2023-11-18T10:36:22;15.60;93.80
52295;DHT22;38243;53.212;6.574;2023-11-18T10:38:50;15.60;93.80
52295;DHT22;38243;53.212;6.574;2023-11-18T10:41:18;15.60;93.80
52295;DHT22;38243;53.212;6.574;2023-11-18T10:43:47;15.60;93.70
52295;DHT22;38243;53.212;6.574;2023-11-18T10:46:16;15.60;93.80
52295;DHT22;38243;53.212;6.574;2023-11-18T10:48:47;15.60;93.80
52295;DHT22;38243;53.212;6.574;2023-11-18T10:51:20;15.60;93.70
52295;DHT22;38243;53.212;6.574;2023-11-18T10:53:50;15.60;93.70
52295;DHT22;38243;53.212;6.574;2023-11-18T10:56:22;15.60;93.80
52295;DHT22;38243;53.212;6.574;2023-11-18T10:59:07;15.60;93.80
52295;DHT22;38243;53.212;6.574;2023-11-18T11:01:37;15.60;93.80
52295;DHT22;38243;53.212;6.574;2023-11-18T11:04:12;15.60;93.80
52295;DHT22;38243;53.212;6.574;2023-11-18T11:06:43;15.60;93.70
52295;DHT22;38243;53.212;6.574;2023-11-18T11:09:21;15.60;93.70
52295;DHT22;38243;53.212;6.574;2023-11-18T11:12:00;15.60;93.70
52295;DHT22;38243;53.212;6.574;2023-11-18T11:14:39;15.60;93.70
52295;DHT22;38243;53.212;6.574;2023-11-18T11:17:13;15.70;93.80
52295;DHT22;38243;53.212;6.574;2023-11-18T11:20:10;15.70;93.80
52295;DHT22;38243;53.212;6.574;2023-11-18T11:31:30;15.70;93.80
52295;DHT22;38243;53.212;6.574;2023-11-18T11:34:02;15.70;93.80
52295;DHT22;38243;53.212;6.574;2023-11-18T11:36:37;15.70;93.80
52295;DHT22;38243;53.212;6.574;2023-11-18T11:39:07;15.70;93.80
52295;DHT22;38243;53.212;6.574;2023-11-18T11:41:46;15.70;93.70
52295;DHT22;38243;53.212;6.574;2023-11-18T11:44:20;15.70;93.70
52295;DHT22;38243;53.212;6.574;2023-11-18T11:46:49;15.70;93.70
52295;DHT22;38243;53.212;6.574;2023-11-18T11:49:20;15.70;93.70
52295;DHT22;38243;53.212;6.574;2023-11-18T11:52:03;15.70;93.60
52295;DHT22;38243;53.212;6.574;2023-11-18T11:57:39;15.80;93.60
52295;DHT22;38243;53.212;6.574;2023-11-18T12:00:11;15.70;93.60
52295;DHT22;38243;53.212;6.574;2023-11-18T12:02:50;15.70;93.50
52295;DHT22;38243;53.212;6.574;2023-11-18T12:05:17;15.70;93.50
52295;DHT22;38243;53.212;6.574;2023-11-18T12:07:52;15.70;93.40
52295;DHT22;38243;53.212;6.574;2023-11-18T12:10:21;15.70;93.40
52295;DHT22;38243;53.212;6.574;2023-11-18T12:12:48;15.70;93.30
52295;DHT22;38243;53.212;6.574;2023-11-18T12:15:14;15.70;93.30
52295;DHT22;38243;53.212;6.574;2023-11-18T12:20:41;14.90;93.20
52295;DHT22;38243;53.212;6.574;2023-11-18T12:23:10;15.80;93.30
52295;DHT22;38243;53.212;6.574;2023-11-18T12:25:46;15.70;93.20
52295;DHT22;38243;53.212;6.574;2023-11-18T12:28:18;15.20;93.00
52295;DHT22;38243;53.212;6.574;2023-11-18T12:30:48;15.70;93.20
52295;DHT22;38243;53.212;6.574;2023-11-18T12:41:40;15.70;93.10
52295;DHT22;38243;53.212;6.574;2023-11-18T12:44:29;15.70;93.10
52295;DHT22;38243;53.212;6.574;2023-11-18T12:47:01;15.70;93.10
52295;DHT22;38243;53.212;6.574;2023-11-18T12:49:40;15.70;93.20
52295;DHT22;38243;53.212;6.574;2023-11-18T12:52:08;15.70;93.20
52295;DHT22;38243;53.212;6.574;2023-11-18T12:54:35;15.70;93.20
52295;DHT22;38243;53.212;6.574;2023-11-18T12:57:07;15.70;93.20
52295;DHT22;38243;53.212;6.574;2023-11-18T12:59:36;15.70;93.20
52295;DHT22;38243;53.212;6.574;2023-11-18T13:02:07;15.70;93.30
52295;DHT22;38243;53.212;6.574;2023-11-18T13:04:37;15.70;93.30
52295;DHT22;38243;53.212;6.574;2023-11-18T13:07:06;15.60;93.30
52295;DHT22;38243;53.212;6.574;2023-11-18T13:09:34;15.70;93.30
52295;DHT22;38243;53.212;6.574;2023-11-18T13:12:02;15.60;93.40
52295;DHT22;38243;53.212;6.574;2023-11-18T13:14:35;15.60;93.30
52295;DHT22;38243;53.212;6.574;2023-11-18T13:17:15;15.70;93.40
52295;DHT22;38243;53.212;6.574;2023-11-18T13:19:44;15.70;93.40
52295;DHT22;38243;53.212;6.574;2023-11-18T13:22:14;15.60;93.30
52295;DHT22;38243;53.212;6.574;2023-11-18T13:24:43;15.70;93.40
52295;DHT22;38243;53.212;6.574;2023-11-18T13:27:16;14.40;93.20
52295;DHT22;38243;53.212;6.574;2023-11-18T13:29:47;15.70;93.50
52295;DHT22;38243;53.212;6.574;2023-11-18T13:32:17;15.60;93.50
52295;DHT22;38243;53.212;6.574;2023-11-18T13:34:43;14.50;93.20
52295;DHT22;38243;53.212;6.574;2023-11-18T13:37:10;15.60;93.60
52295;DHT22;38243;53.212;6.574;2023-11-18T13:39:38;15.60;93.70
52295;DHT22;38243;53.212;6.574;2023-11-18T13:42:24;15.60;93.90
52295;DHT22;38243;53.212;6.574;2023-11-18T13:44:51;15.60;93.70
52295;DHT22;38243;53.212;6.574;2023-11-18T13:47:20;15.60;93.70
52295;DHT22;38243;53.212;6.574;2023-11-18T13:49:53;15.60;93.90
52295;DHT22;38243;53.212;6.574;2023-11-18T13:52:19;15.60;93.80
52295;DHT22;38243;53.212;6.574;2023-11-18T13:54:47;15.60;93.70
52295;DHT22;38243;53.212;6.574;2023-11-18T13:57:13;15.60;93.70
52295;DHT22;38243;53.212;6.574;2023-11-18T13:59:39;15.60;93.70
52295;DHT22;38243;53.212;6.574;2023-11-18T14:02:05;15.50;93.70
52295;DHT22;38243;53.212;6.574;2023-11-18T14:04:33;15.60;93.70
52295;DHT22;38243;53.212;6.574;2023-11-18T14:07:00;15.50;93.70
52295;DHT22;38243;53.212;6.574;2023-11-18T14:09:36;15.50;93.70
52295;DHT22;38243;53.212;6.574;2023-11-18T14:12:07;15.50;93.70
52295;DHT22;38243;53.212;6.574;2023-11-18T14:14:33;15.50;93.70
52295;DHT22;38243;53.212;6.574;2023-11-18T14:16:59;15.40;93.70
52295;DHT22;38243;53.212;6.574;2023-11-18T14:19:25;15.50;93.70
52295;DHT22;38243;53.212;6.574;2023-11-18T14:21:52;15.50;93.70
52295;DHT22;38243;53.212;6.574;2023-11-18T14:24:21;15.50;93.80
52295;DHT22;38243;53.212;6.574;2023-11-18T14:26:56;15.50;93.90
52295;DHT22;38243;53.212;6.574;2023-11-18T14:29:31;15.40;94.00
52295;DHT22;38243;53.212;6.574;2023-11-18T14:31:57;15.40;93.80
52295;DHT22;38243;53.212;6.574;2023-11-18T14:34:24;15.20;93.70
52295;DHT22;38243;53.212;6.574;2023-11-18T14:36:50;15.30;93.70
52295;DHT22;38243;53.212;6.574;2023-11-18T14:39:18;15.50;93.90
52295;DHT22;38243;53.212;6.574;2023-11-18T14:41:48;15.40;93.80
52295;DHT22;38243;53.212;6.574;2023-11-18T14:44:25;15.50;93.80
52295;DHT22;38243;53.212;6.574;2023-11-18T14:46:51;15.70;93.90
52295;DHT22;38243;53.212;6.574;2023-11-18T14:49:20;15.50;94.30
52295;DHT22;38243;53.212;6.574;2023-11-18T14:51:45;15.50;93.80
52295;DHT22;38243;53.212;6.574;2023-11-18T14:54:11;15.50;94.20
52295;DHT22;38243;53.212;6.574;2023-11-18T14:56:38;15.50;93.80
52295;DHT22;38243;53.212;6.574;2023-11-18T14:59:03;15.50;94.10
52295;DHT22;38243;53.212;6.574;2023-11-18T15:01:31;15.10;93.80
52295;DHT22;38243;53.212;6.574;2023-11-18T15:03:57;15.60;94.10
52295;DHT22;38243;53.212;6.574;2023-11-18T15:06:26;15.50;94.00
52295;DHT22;38243;53.212;6.574;2023-11-18T15:08:52;15.40;93.80
52295;DHT22;38243;53.212;6.574;2023-11-18T15:11:23;15.50;94.10
52295;DHT22;38243;53.212;6.574;2023-11-18T15:13:50;15.60;94.00
52295;DHT22;38243;53.212;6.574;2023-11-18T15:16:27;15.60;94.00
52295;DHT22;38243;53.212;6.574;2023-11-18T15:18:53;15.50;94.10
52295;DHT22;38243;53.212;6.574;2023-11-18T15:21:29;14.10;93.80
52295;DHT22;38243;53.212;6.574;2023-11-18T15:23:58;15.60;94.10
52295;DHT22;38243;53.212;6.574;2023-11-18T15:26:27;14.30;94.00
52295;DHT22;38243;53.212;6.574;2023-11-18T15:28:53;15.60;94.10
52295;DHT22;38243;53.212;6.574;2023-11-18T15:31:19;15.60;94.10
52295;DHT22;38243;53.212;6.574;2023-11-18T15:33:45;15.60;94.10
52295;DHT22;38243;53.212;6.574;2023-11-18T15:36:12;15.60;94.20
52295;DHT22;38243;53.212;6.574;2023-11-18T15:38:38;15.60;94.30
52295;DHT22;38243;53.212;6.574;2023-11-18T15:41:04;15.40;94.10
52295;DHT22;38243;53.212;6.574;2023-11-18T15:43:32;15.60;94.10
52295;DHT22;38243;53.212;6.574;2023-11-18T15:46:00;15.60;94.10
52295;DHT22;38243;53.212;6.574;2023-11-18T15:48:26;15.60;94.10
52295;DHT22;38243;53.212;6.574;2023-11-18T15:50:52;15.60;94.10
52295;DHT22;38243;53.212;6.574;2023-11-18T15:53:18;15.60;94.10
52295;DHT22;38243;53.212;6.574;2023-11-18T15:55:45;15.60;94.10
52295;DHT22;38243;53.212;6.574;2023-11-18T15:58:14;15.60;94.20
52295;DHT22;38243;53.212;6.574;2023-11-18T16:00:40;15.60;94.30
52295;DHT22;38243;53.212;6.574;2023-11-18T16:03:06;15.60;94.30
52295;DHT22;38243;53.212;6.574;2023-11-18T16:05:34;15.60;94.30